sensor_id;sensor_type;location;lat;lon;timestamp;temperature;humidity
6752;DHT22;3413;47.680;9.166;2023-04-12T00:03:03;12.10;79.30
6752;DHT22;3413;47.680;9.166;2023-04-12T00:08:06;12.20;79.30
6752;DHT22;3413;47.680;9.166;2023-04-12T00:13:11;12.30;79.30
6752;DHT22;3413;47.680;9.166;2023-04-12T00:18:13;12.30;79.40
6752;DHT22;3413;47.680;9.166;2023-04-12T00:23:15;12.20;80.10
6752;DHT22;3413;47.680;9.166;2023-04-12T00:28:18;12.30;79.80
6752;DHT22;3413;47.680;9.166;2023-04-12T00:33:20;12.40;79.90
6752;DHT22;3413;47.680;9.166;2023-04-12T00:38:21;12.60;80.20
6752;DHT22;3413;47.680;9.166;2023-04-12T00:43:24;12.70;80.30
6752;DHT22;3413;47.680;9.166;2023-04-12T00:48:29;12.70;80.30
6752;DHT22;3413;47.680;9.166;2023-04-12T00:53:32;12.80;80.60
6752;DHT22;3413;47.680;9.166;2023-04-12T00:58:35;12.80;80.60
6752;DHT22;3413;47.680;9.166;2023-04-12T01:03:37;12.80;80.70
6752;DHT22;3413;47.680;9.166;2023-04-12T01:14:13;12.60;80.70
6752;DHT22;3413;47.680;9.166;2023-04-12T01:29:37;12.50;80.50
6752;DHT22;3413;47.680;9.166;2023-04-12T01:34:40;12.50;80.60
6752;DHT22;3413;47.680;9.166;2023-04-12T01:39:43;12.50;80.80
6752;DHT22;3413;47.680;9.166;2023-04-12T01:44:45;12.60;80.90
6752;DHT22;3413;47.680;9.166;2023-04-12T01:49:55;12.60;80.40
6752;DHT22;3413;47.680;9.166;2023-04-12T01:55:01;12.60;81.20
6752;DHT22;3413;47.680;9.166;2023-04-12T02:00:08;12.60;81.30
6752;DHT22;3413;47.680;9.166;2023-04-12T02:05:17;12.60;81.40
6752;DHT22;3413;47.680;9.166;2023-04-12T02:10:29;12.50;81.40
6752;DHT22;3413;47.680;9.166;2023-04-12T02:15:31;12.40;81.60
6752;DHT22;3413;47.680;9.166;2023-04-12T02:20:34;12.40;81.50
6752;DHT22;3413;47.680;9.166;2023-04-12T02:25:36;12.20;81.50
6752;DHT22;3413;47.680;9.166;2023-04-12T02:30:40;12.30;81.70
6752;DHT22;3413;47.680;9.166;2023-04-12T02:35:44;12.30;81.80
6752;DHT22;3413;47.680;9.166;2023-04-12T02:40:49;12.20;81.90
6752;DHT22;3413;47.680;9.166;2023-04-12T02:45:52;12.10;81.90
6752;DHT22;3413;47.680;9.166;2023-04-12T02:50:54;12.00;82.00
6752;DHT22;3413;47.680;9.166;2023-04-12T02:55:59;11.90;82.00
6752;DHT22;3413;47.680;9.166;2023-04-12T03:01:03;11.90;82.10
6752;DHT22;3413;47.680;9.166;2023-04-12T03:06:24;11.90;82.10
6752;DHT22;3413;47.680;9.166;2023-04-12T03:11:26;12.00;82.30
6752;DHT22;3413;47.680;9.166;2023-04-12T03:16:29;12.00;82.40
6752;DHT22;3413;47.680;9.166;2023-04-12T03:21:42;12.00;82.50
6752;DHT22;3413;47.680;9.166;2023-04-12T03:26:45;12.00;82.50
6752;DHT22;3413;47.680;9.166;2023-04-12T03:31:53;12.00;82.60
6752;DHT22;3413;47.680;9.166;2023-04-12T03:36:58;12.00;82.70
6752;DHT22;3413;47.680;9.166;2023-04-12T03:42:12;11.90;82.70
6752;DHT22;3413;47.680;9.166;2023-04-12T03:47:27;11.90;82.80
6752;DHT22;3413;47.680;9.166;2023-04-12T03:52:29;11.90;82.80
6752;DHT22;3413;47.680;9.166;2023-04-12T03:57:31;11.90;82.90
6752;DHT22;3413;47.680;9.166;2023-04-12T04:02:34;11.90;83.00
6752;DHT22;3413;47.680;9.166;2023-04-12T04:07:38;12.00;83.20
6752;DHT22;3413;47.680;9.166;2023-04-12T04:12:40;12.00;83.20
6752;DHT22;3413;47.680;9.166;2023-04-12T04:17:45;12.00;83.30
6752;DHT22;3413;47.680;9.166;2023-04-12T04:22:51;12.00;83.40
6752;DHT22;3413;47.680;9.166;2023-04-12T04:27:57;12.00;83.50
6752;DHT22;3413;47.680;9.166;2023-04-12T04:33:04;11.90;83.50
6752;DHT22;3413;47.680;9.166;2023-04-12T04:38:06;11.90;83.60
6752;DHT22;3413;47.680;9.166;2023-04-12T04:43:09;11.90;83.60
6752;DHT22;3413;47.680;9.166;2023-04-12T04:48:16;11.90;83.80
6752;DHT22;3413;47.680;9.166;2023-04-12T04:53:20;11.80;83.80
6752;DHT22;3413;47.680;9.166;2023-04-12T04:58:23;11.80;83.90
6752;DHT22;3413;47.680;9.166;2023-04-12T05:03:25;11.70;83.70
6752;DHT22;3413;47.680;9.166;2023-04-12T05:08:32;11.80;83.80
6752;DHT22;3413;47.680;9.166;2023-04-12T05:13:35;11.70;83.80
6752;DHT22;3413;47.680;9.166;2023-04-12T05:18:37;11.70;83.90
6752;DHT22;3413;47.680;9.166;2023-04-12T05:23:44;11.80;84.10
6752;DHT22;3413;47.680;9.166;2023-04-12T05:28:47;11.80;84.10
6752;DHT22;3413;47.680;9.166;2023-04-12T05:33:52;11.80;84.20
6752;DHT22;3413;47.680;9.166;2023-04-12T05:39:00;12.00;84.50
6752;DHT22;3413;47.680;9.166;2023-04-12T05:44:02;12.00;84.50
6752;DHT22;3413;47.680;9.166;2023-04-12T05:49:05;12.00;84.60
6752;DHT22;3413;47.680;9.166;2023-04-12T05:54:07;12.10;84.80
6752;DHT22;3413;47.680;9.166;2023-04-12T05:59:10;12.20;84.90
6752;DHT22;3413;47.680;9.166;2023-04-12T06:04:13;12.30;85.10
6752;DHT22;3413;47.680;9.166;2023-04-12T06:09:16;12.50;85.30
6752;DHT22;3413;47.680;9.166;2023-04-12T06:14:18;12.50;85.40
6752;DHT22;3413;47.680;9.166;2023-04-12T06:19:20;12.50;85.40
6752;DHT22;3413;47.680;9.166;2023-04-12T06:24:24;12.60;85.50
6752;DHT22;3413;47.680;9.166;2023-04-12T06:29:26;12.60;85.50
6752;DHT22;3413;47.680;9.166;2023-04-12T06:34:28;12.60;86.20
6752;DHT22;3413;47.680;9.166;2023-04-12T06:39:33;12.60;85.70
6752;DHT22;3413;47.680;9.166;2023-04-12T06:44:35;12.60;85.70
6752;DHT22;3413;47.680;9.166;2023-04-12T06:49:38;12.70;85.90
6752;DHT22;3413;47.680;9.166;2023-04-12T06:54:40;12.70;86.00
6752;DHT22;3413;47.680;9.166;2023-04-12T06:59:42;12.70;86.00
6752;DHT22;3413;47.680;9.166;2023-04-12T07:04:44;12.70;86.10
6752;DHT22;3413;47.680;9.166;2023-04-12T07:09:46;12.70;86.30
6752;DHT22;3413;47.680;9.166;2023-04-12T07:14:51;12.70;86.30
6752;DHT22;3413;47.680;9.166;2023-04-12T07:19:54;12.70;86.40
6752;DHT22;3413;47.680;9.166;2023-04-12T07:24:56;12.80;86.60
6752;DHT22;3413;47.680;9.166;2023-04-12T07:29:58;12.80;86.50
6752;DHT22;3413;47.680;9.166;2023-04-12T07:34:59;12.90;86.60
6752;DHT22;3413;47.680;9.166;2023-04-12T07:40:01;13.00;86.70
6752;DHT22;3413;47.680;9.166;2023-04-12T07:45:04;13.00;86.90
6752;DHT22;3413;47.680;9.166;2023-04-12T07:50:07;13.00;87.20
6752;DHT22;3413;47.680;9.166;2023-04-12T07:55:09;13.20;87.50
6752;DHT22;3413;47.680;9.166;2023-04-12T08:00:11;13.30;87.70
6752;DHT22;3413;47.680;9.166;2023-04-12T08:05:13;13.50;87.80
6752;DHT22;3413;47.680;9.166;2023-04-12T08:10:15;13.60;87.90
6752;DHT22;3413;47.680;9.166;2023-04-12T08:15:17;13.90;88.40
6752;DHT22;3413;47.680;9.166;2023-04-12T08:20:19;14.10;88.80
6752;DHT22;3413;47.680;9.166;2023-04-12T08:25:21;14.30;89.40
6752;DHT22;3413;47.680;9.166;2023-04-12T08:30:23;14.60;89.90
6752;DHT22;3413;47.680;9.166;2023-04-12T08:35:27;14.90;90.10
6752;DHT22;3413;47.680;9.166;2023-04-12T08:40:29;15.20;90.20
6752;DHT22;3413;47.680;9.166;2023-04-12T08:45:34;15.50;90.30
6752;DHT22;3413;47.680;9.166;2023-04-12T08:50:36;15.70;90.40
6752;DHT22;3413;47.680;9.166;2023-04-12T08:55:37;15.90;90.50
6752;DHT22;3413;47.680;9.166;2023-04-12T09:00:40;16.20;90.60
6752;DHT22;3413;47.680;9.166;2023-04-12T09:05:42;16.40;90.60
6752;DHT22;3413;47.680;9.166;2023-04-12T09:10:44;16.60;90.60
6752;DHT22;3413;47.680;9.166;2023-04-12T09:15:49;16.80;90.70
6752;DHT22;3413;47.680;9.166;2023-04-12T09:21:05;17.10;90.80
6752;DHT22;3413;47.680;9.166;2023-04-12T09:26:07;17.30;90.80
6752;DHT22;3413;47.680;9.166;2023-04-12T09:31:15;17.50;90.70
6752;DHT22;3413;47.680;9.166;2023-04-12T09:36:18;17.70;90.90
6752;DHT22;3413;47.680;9.166;2023-04-12T09:41:20;17.90;90.80
6752;DHT22;3413;47.680;9.166;2023-04-12T09:46:28;18.00;90.60
6752;DHT22;3413;47.680;9.166;2023-04-12T09:51:31;17.90;90.50
6752;DHT22;3413;47.680;9.166;2023-04-12T09:56:35;18.00;90.60
6752;DHT22;3413;47.680;9.166;2023-04-12T10:01:38;18.10;90.60
6752;DHT22;3413;47.680;9.166;2023-04-12T10:06:41;18.20;90.50
6752;DHT22;3413;47.680;9.166;2023-04-12T10:11:44;18.20;90.50
6752;DHT22;3413;47.680;9.166;2023-04-12T10:16:46;18.20;90.50
6752;DHT22;3413;47.680;9.166;2023-04-12T10:21:49;18.20;90.60
6752;DHT22;3413;47.680;9.166;2023-04-12T10:26:53;18.20;90.70
6752;DHT22;3413;47.680;9.166;2023-04-12T10:31:58;18.20;90.70
6752;DHT22;3413;47.680;9.166;2023-04-12T10:37:19;18.20;90.70
6752;DHT22;3413;47.680;9.166;2023-04-12T11:04:16;18.40;90.60
6752;DHT22;3413;47.680;9.166;2023-04-12T11:14:49;18.20;90.50
6752;DHT22;3413;47.680;9.166;2023-04-12T11:19:58;18.30;90.50
6752;DHT22;3413;47.680;9.166;2023-04-12T11:25:01;18.30;90.40
6752;DHT22;3413;47.680;9.166;2023-04-12T11:30:04;18.30;90.40
6752;DHT22;3413;47.680;9.166;2023-04-12T11:35:09;18.10;90.20
6752;DHT22;3413;47.680;9.166;2023-04-12T11:40:13;18.10;90.20
6752;DHT22;3413;47.680;9.166;2023-04-12T11:45:20;17.80;90.10
6752;DHT22;3413;47.680;9.166;2023-04-12T11:50:29;17.80;90.20
6752;DHT22;3413;47.680;9.166;2023-04-12T11:55:32;17.50;90.10
6752;DHT22;3413;47.680;9.166;2023-04-12T12:00:34;17.40;90.10
6752;DHT22;3413;47.680;9.166;2023-04-12T12:05:37;17.30;89.90
6752;DHT22;3413;47.680;9.166;2023-04-12T12:10:40;17.10;90.00
6752;DHT22;3413;47.680;9.166;2023-04-12T12:16:01;17.00;90.30
6752;DHT22;3413;47.680;9.166;2023-04-12T12:21:03;17.00;90.10
6752;DHT22;3413;47.680;9.166;2023-04-12T12:26:08;17.10;90.20
6752;DHT22;3413;47.680;9.166;2023-04-12T12:31:22;17.30;90.30
6752;DHT22;3413;47.680;9.166;2023-04-12T12:36:32;17.40;90.30
6752;DHT22;3413;47.680;9.166;2023-04-12T12:41:34;17.50;90.30
6752;DHT22;3413;47.680;9.166;2023-04-12T12:46:36;17.60;90.30
6752;DHT22;3413;47.680;9.166;2023-04-12T12:51:56;17.80;90.30
6752;DHT22;3413;47.680;9.166;2023-04-12T12:56:58;17.70;90.10
6752;DHT22;3413;47.680;9.166;2023-04-12T13:02:00;17.60;90.10
6752;DHT22;3413;47.680;9.166;2023-04-12T13:07:02;17.50;90.10
6752;DHT22;3413;47.680;9.166;2023-04-12T13:12:04;17.50;90.20
6752;DHT22;3413;47.680;9.166;2023-04-12T13:17:07;17.40;90.20
6752;DHT22;3413;47.680;9.166;2023-04-12T13:22:09;17.30;90.10
6752;DHT22;3413;47.680;9.166;2023-04-12T13:27:16;17.10;90.00
6752;DHT22;3413;47.680;9.166;2023-04-12T13:32:18;16.80;89.90
6752;DHT22;3413;47.680;9.166;2023-04-12T13:37:20;16.50;89.80
6752;DHT22;3413;47.680;9.166;2023-04-12T13:42:22;16.20;89.50
6752;DHT22;3413;47.680;9.166;2023-04-12T13:47:26;16.00;89.40
6752;DHT22;3413;47.680;9.166;2023-04-12T13:52:28;15.90;89.70
6752;DHT22;3413;47.680;9.166;2023-04-12T13:57:30;15.80;89.30
6752;DHT22;3413;47.680;9.166;2023-04-12T14:02:32;15.70;89.80
6752;DHT22;3413;47.680;9.166;2023-04-12T14:07:34;15.70;89.80
6752;DHT22;3413;47.680;9.166;2023-04-12T14:12:36;15.70;89.90
6752;DHT22;3413;47.680;9.166;2023-04-12T14:17:38;15.60;90.00
6752;DHT22;3413;47.680;9.166;2023-04-12T14:22:41;15.60;89.90
6752;DHT22;3413;47.680;9.166;2023-04-12T14:27:43;15.60;89.90
6752;DHT22;3413;47.680;9.166;2023-04-12T14:32:45;15.60;90.00
6752;DHT22;3413;47.680;9.166;2023-04-12T14:37:48;15.70;90.10
6752;DHT22;3413;47.680;9.166;2023-04-12T14:42:50;15.80;90.10
6752;DHT22;3413;47.680;9.166;2023-04-12T14:47:53;15.90;90.20
6752;DHT22;3413;47.680;9.166;2023-04-12T14:52:55;15.90;90.30
6752;DHT22;3413;47.680;9.166;2023-04-12T14:57:57;16.00;90.20
6752;DHT22;3413;47.680;9.166;2023-04-12T15:02:58;16.10;90.30
6752;DHT22;3413;47.680;9.166;2023-04-12T15:08:01;16.00;90.30
6752;DHT22;3413;47.680;9.166;2023-04-12T15:13:04;16.10;90.40
6752;DHT22;3413;47.680;9.166;2023-04-12T15:18:07;16.10;90.30
6752;DHT22;3413;47.680;9.166;2023-04-12T15:23:10;16.00;90.30
6752;DHT22;3413;47.680;9.166;2023-04-12T15:28:13;16.00;90.30
6752;DHT22;3413;47.680;9.166;2023-04-12T15:33:14;16.00;90.30
6752;DHT22;3413;47.680;9.166;2023-04-12T15:38:17;16.00;90.30
6752;DHT22;3413;47.680;9.166;2023-04-12T15:43:25;16.00;90.40
6752;DHT22;3413;47.680;9.166;2023-04-12T15:48:27;16.00;90.40
6752;DHT22;3413;47.680;9.166;2023-04-12T15:53:29;15.90;90.30
6752;DHT22;3413;47.680;9.166;2023-04-12T15:58:31;15.90;90.40
6752;DHT22;3413;47.680;9.166;2023-04-12T16:03:34;15.80;90.30
6752;DHT22;3413;47.680;9.166;2023-04-12T16:08:40;15.70;90.40
6752;DHT22;3413;47.680;9.166;2023-04-12T16:13:43;15.60;90.40
6752;DHT22;3413;47.680;9.166;2023-04-12T16:18:47;15.50;90.40
6752;DHT22;3413;47.680;9.166;2023-04-12T16:23:50;15.30;90.40
6752;DHT22;3413;47.680;9.166;2023-04-12T16:28:56;15.30;90.50
6752;DHT22;3413;47.680;9.166;2023-04-12T16:33:59;15.20;90.50
6752;DHT22;3413;47.680;9.166;2023-04-12T16:39:07;15.20;90.40
6752;DHT22;3413;47.680;9.166;2023-04-12T16:44:18;15.10;90.40
6752;DHT22;3413;47.680;9.166;2023-04-12T16:49:30;15.10;90.40
6752;DHT22;3413;47.680;9.166;2023-04-12T16:54:38;15.00;90.50
6752;DHT22;3413;47.680;9.166;2023-04-12T16:59:50;15.00;90.40
6752;DHT22;3413;47.680;9.166;2023-04-12T17:05:22;14.80;90.40
6752;DHT22;3413;47.680;9.166;2023-04-12T17:10:25;14.70;90.30
6752;DHT22;3413;47.680;9.166;2023-04-12T17:15:34;14.70;90.30
6752;DHT22;3413;47.680;9.166;2023-04-12T17:20:41;14.50;90.30
6752;DHT22;3413;47.680;9.166;2023-04-12T17:26:11;14.60;90.30
6752;DHT22;3413;47.680;9.166;2023-04-12T17:31:13;14.60;90.40
6752;DHT22;3413;47.680;9.166;2023-04-12T17:36:16;14.60;90.30
6752;DHT22;3413;47.680;9.166;2023-04-12T17:41:19;14.70;90.40
6752;DHT22;3413;47.680;9.166;2023-04-12T17:46:22;14.80;90.60
6752;DHT22;3413;47.680;9.166;2023-04-12T17:51:25;14.80;90.60
6752;DHT22;3413;47.680;9.166;2023-04-12T17:56:28;14.90;90.70
6752;DHT22;3413;47.680;9.166;2023-04-12T18:01:30;14.90;90.70
6752;DHT22;3413;47.680;9.166;2023-04-12T18:06:36;14.90;90.70
6752;DHT22;3413;47.680;9.166;2023-04-12T18:11:40;14.90;90.80
6752;DHT22;3413;47.680;9.166;2023-04-12T18:16:45;14.90;90.90
6752;DHT22;3413;47.680;9.166;2023-04-12T18:21:48;15.00;90.90
6752;DHT22;3413;47.680;9.166;2023-04-12T18:26:52;15.00;91.20
6752;DHT22;3413;47.680;9.166;2023-04-12T18:31:55;15.10;90.90
6752;DHT22;3413;47.680;9.166;2023-04-12T18:36:57;15.20;91.00
6752;DHT22;3413;47.680;9.166;2023-04-12T18:42:00;15.20;91.00
6752;DHT22;3413;47.680;9.166;2023-04-12T18:47:03;15.30;91.00
6752;DHT22;3413;47.680;9.166;2023-04-12T18:52:06;15.10;90.90
6752;DHT22;3413;47.680;9.166;2023-04-12T18:57:09;15.00;90.90
6752;DHT22;3413;47.680;9.166;2023-04-12T19:02:12;14.60;90.80
6752;DHT22;3413;47.680;9.166;2023-04-12T19:07:16;14.20;90.70
6752;DHT22;3413;47.680;9.166;2023-04-12T19:12:20;13.90;90.70
6752;DHT22;3413;47.680;9.166;2023-04-12T19:17:24;13.70;90.60
6752;DHT22;3413;47.680;9.166;2023-04-12T19:22:29;13.50;90.60
6752;DHT22;3413;47.680;9.166;2023-04-12T19:27:31;13.30;90.40
6752;DHT22;3413;47.680;9.166;2023-04-12T19:32:34;13.10;90.40
6752;DHT22;3413;47.680;9.166;2023-04-12T19:37:40;12.90;90.20
6752;DHT22;3413;47.680;9.166;2023-04-12T19:42:43;12.90;90.30
6752;DHT22;3413;47.680;9.166;2023-04-12T19:47:46;12.90;90.20
6752;DHT22;3413;47.680;9.166;2023-04-12T19:52:49;12.70;90.20
6752;DHT22;3413;47.680;9.166;2023-04-12T19:57:52;12.70;90.10
6752;DHT22;3413;47.680;9.166;2023-04-12T20:02:56;12.70;90.10
6752;DHT22;3413;47.680;9.166;2023-04-12T20:08:02;12.60;90.10
6752;DHT22;3413;47.680;9.166;2023-04-12T20:13:10;12.80;90.10
6752;DHT22;3413;47.680;9.166;2023-04-12T20:18:17;12.70;90.00
6752;DHT22;3413;47.680;9.166;2023-04-12T20:23:23;12.60;90.00
6752;DHT22;3413;47.680;9.166;2023-04-12T20:28:27;12.60;90.00
6752;DHT22;3413;47.680;9.166;2023-04-12T20:33:31;12.60;90.00
6752;DHT22;3413;47.680;9.166;2023-04-12T20:38:34;12.60;90.00
6752;DHT22;3413;47.680;9.166;2023-04-12T20:43:45;12.60;89.90
6752;DHT22;3413;47.680;9.166;2023-04-12T20:48:49;12.80;90.00
6752;DHT22;3413;47.680;9.166;2023-04-12T20:53:54;12.80;89.90
6752;DHT22;3413;47.680;9.166;2023-04-12T20:59:00;12.80;90.00
6752;DHT22;3413;47.680;9.166;2023-04-12T21:04:04;12.70;89.70
6752;DHT22;3413;47.680;9.166;2023-04-12T21:09:08;12.80;89.90
6752;DHT22;3413;47.680;9.166;2023-04-12T21:14:13;12.80;90.00
6752;DHT22;3413;47.680;9.166;2023-04-12T21:19:17;12.80;90.10
6752;DHT22;3413;47.680;9.166;2023-04-12T21:24:20;12.80;90.10
6752;DHT22;3413;47.680;9.166;2023-04-12T21:29:22;12.90;90.10
6752;DHT22;3413;47.680;9.166;2023-04-12T21:34:26;12.90;90.10
6752;DHT22;3413;47.680;9.166;2023-04-12T21:39:30;12.90;90.10
6752;DHT22;3413;47.680;9.166;2023-04-12T21:44:34;12.70;90.20
6752;DHT22;3413;47.680;9.166;2023-04-12T21:49:36;12.70;90.20
6752;DHT22;3413;47.680;9.166;2023-04-12T21:54:42;12.60;90.10
6752;DHT22;3413;47.680;9.166;2023-04-12T21:59:44;12.50;90.20
6752;DHT22;3413;47.680;9.166;2023-04-12T22:04:48;12.30;90.10
6752;DHT22;3413;47.680;9.166;2023-04-12T22:09:51;12.00;90.10
6752;DHT22;3413;47.680;9.166;2023-04-12T22:14:54;11.90;90.20
6752;DHT22;3413;47.680;9.166;2023-04-12T22:19:58;11.80;90.20
6752;DHT22;3413;47.680;9.166;2023-04-12T22:25:00;11.70;90.20
6752;DHT22;3413;47.680;9.166;2023-04-12T22:30:02;11.60;90.10
6752;DHT22;3413;47.680;9.166;2023-04-12T22:35:05;11.60;90.10
6752;DHT22;3413;47.680;9.166;2023-04-12T22:40:10;11.70;90.10
6752;DHT22;3413;47.680;9.166;2023-04-12T22:45:16;11.80;90.00
6752;DHT22;3413;47.680;9.166;2023-04-12T22:50:19;11.70;90.00
6752;DHT22;3413;47.680;9.166;2023-04-12T22:55:20;11.60;90.20
6752;DHT22;3413;47.680;9.166;2023-04-12T23:00:22;11.60;90.00
6752;DHT22;3413;47.680;9.166;2023-04-12T23:05:25;11.70;89.80
6752;DHT22;3413;47.680;9.166;2023-04-12T23:10:27;11.50;89.30
6752;DHT22;3413;47.680;9.166;2023-04-12T23:15:32;11.30;89.30
6752;DHT22;3413;47.680;9.166;2023-04-12T23:20:36;11.20;89.30
6752;DHT22;3413;47.680;9.166;2023-04-12T23:25:38;11.20;89.00
6752;DHT22;3413;47.680;9.166;2023-04-12T23:30:45;11.20;89.10
6752;DHT22;3413;47.680;9.166;2023-04-12T23:35:51;11.20;89.20
6752;DHT22;3413;47.680;9.166;2023-04-12T23:40:53;11.20;88.90
6752;DHT22;3413;47.680;9.166;2023-04-12T23:45:56;11.20;88.70
6752;DHT22;3413;47.680;9.166;2023-04-12T23:50:58;11.00;88.50
6752;DHT22;3413;47.680;9.166;2023-04-12T23:56:01;10.90;88.80
